createdAt,value
2018-10-12T00:00:55.891Z,21.73
2018-10-12T00:03:23.067Z,21.17
2018-10-12T00:05:50.244Z,24.07
2018-10-12T00:08:17.415Z,25.93
2018-10-12T00:10:44.579Z,24.67
2018-10-12T00:13:11.744Z,26.63
2018-10-12T00:15:38.925Z,24.13
2018-10-12T00:18:06.091Z,26.30
2018-10-12T00:20:33.281Z,22.07
2018-10-12T00:23:01.592Z,27.50
2018-10-12T00:25:28.782Z,25.97
2018-10-12T00:27:56.085Z,27.50
2018-10-12T00:30:23.271Z,27.00
2018-10-12T00:32:50.439Z,27.80
2018-10-12T00:35:17.598Z,25.63
2018-10-12T00:37:44.785Z,26.30
2018-10-12T00:40:11.943Z,27.07
2018-10-12T00:42:39.168Z,25.70
2018-10-12T00:45:06.367Z,26.50
2018-10-12T00:47:33.557Z,25.10
2018-10-12T00:50:00.736Z,25.53
2018-10-12T00:52:28.046Z,25.60
2018-10-12T00:54:55.237Z,26.03
2018-10-12T00:57:22.411Z,25.87
2018-10-12T00:59:49.614Z,28.63
2018-10-12T01:02:16.791Z,27.90
2018-10-12T01:04:43.955Z,27.53
2018-10-12T01:07:11.128Z,26.73
2018-10-12T01:09:38.301Z,26.27
2018-10-12T01:12:17.244Z,28.07
2018-10-12T01:14:44.388Z,26.37
2018-10-12T01:17:18.376Z,29.27
2018-10-12T01:19:45.576Z,28.07
2018-10-12T01:22:12.853Z,26.13
2018-10-12T01:24:40.092Z,26.43
2018-10-12T01:27:07.348Z,26.10
2018-10-12T01:29:34.560Z,24.23
2018-10-12T01:32:01.781Z,26.83
2018-10-12T01:34:28.994Z,29.93
2018-10-12T01:36:56.163Z,29.70
2018-10-12T01:39:23.364Z,26.73
2018-10-12T01:41:50.561Z,28.10
2018-10-12T01:44:17.752Z,25.30
2018-10-12T01:46:44.984Z,27.73
2018-10-12T01:49:12.203Z,30.17
2018-10-12T01:51:39.370Z,29.70
2018-10-12T01:54:06.589Z,29.23
2018-10-12T01:56:33.755Z,30.43
2018-10-12T01:59:00.936Z,33.47
2018-10-12T02:01:28.128Z,28.87
2018-10-12T02:03:55.307Z,31.67
2018-10-12T02:06:22.475Z,35.67
2018-10-12T02:08:49.662Z,30.87
2018-10-12T02:11:16.831Z,30.77
2018-10-12T02:13:43.999Z,24.80
2018-10-12T02:16:11.502Z,26.83
2018-10-12T02:18:38.683Z,31.77
2018-10-12T02:21:05.875Z,31.57
2018-10-12T02:23:33.051Z,31.17
2018-10-12T02:26:00.240Z,31.97
2018-10-12T02:28:27.395Z,29.43
2018-10-12T02:30:54.580Z,30.70
2018-10-12T02:33:21.748Z,27.63
2018-10-12T02:35:48.911Z,24.43
2018-10-12T02:38:16.097Z,26.53
2018-10-12T02:40:43.272Z,22.17
2018-10-12T02:43:10.444Z,23.57
2018-10-12T02:45:37.618Z,27.93
2018-10-12T02:48:05.104Z,26.70
2018-10-12T02:50:32.279Z,36.27
2018-10-12T02:52:59.447Z,32.40
2018-10-12T02:55:26.615Z,34.63
2018-10-12T02:57:53.771Z,31.07
2018-10-12T03:00:20.971Z,36.60
2018-10-12T03:02:48.177Z,33.03
2018-10-12T03:05:15.319Z,36.30
2018-10-12T03:07:42.507Z,34.97
2018-10-12T03:10:09.729Z,35.40
2018-10-12T03:12:36.911Z,33.37
2018-10-12T03:15:04.127Z,29.13
2018-10-12T03:17:31.290Z,35.03
2018-10-12T03:20:05.291Z,31.73
2018-10-12T03:22:32.452Z,34.13
2018-10-12T03:24:59.630Z,35.20
2018-10-12T03:27:26.843Z,29.97
2018-10-12T03:29:54.059Z,30.20
2018-10-12T03:32:21.259Z,34.20
2018-10-12T03:34:48.485Z,32.13
2018-10-12T03:37:15.751Z,36.77
2018-10-12T03:39:42.929Z,30.13
2018-10-12T03:42:10.131Z,24.70
2018-10-12T03:44:37.336Z,22.97
2018-10-12T03:47:04.530Z,21.50
2018-10-12T03:49:31.733Z,24.93
2018-10-12T03:51:58.937Z,26.87
2018-10-12T03:54:26.103Z,26.27
2018-10-12T03:56:53.268Z,27.90
2018-10-12T03:59:20.439Z,25.67
2018-10-12T04:01:47.611Z,27.00
2018-10-12T04:04:15.017Z,24.13
2018-10-12T04:06:42.215Z,28.47
2018-10-12T04:09:09.395Z,26.33
2018-10-12T04:11:36.571Z,23.97
2018-10-12T04:14:03.734Z,24.77
2018-10-12T04:16:30.897Z,24.80
2018-10-12T04:18:58.063Z,26.43
2018-10-12T04:21:25.242Z,27.33
2018-10-12T04:23:52.442Z,29.07
2018-10-12T04:26:19.661Z,26.60
2018-10-12T04:28:46.831Z,29.93
2018-10-12T04:31:13.999Z,29.23
2018-10-12T04:33:41.198Z,27.57
2018-10-12T04:36:08.411Z,27.87
2018-10-12T04:38:47.419Z,25.80
2018-10-12T04:41:16.751Z,24.13
2018-10-12T04:43:44.826Z,24.53
2018-10-12T04:46:14.433Z,25.17
2018-10-12T04:48:42.512Z,25.00
2018-10-12T04:51:14.199Z,27.70
2018-10-12T04:53:41.426Z,27.57
2018-10-12T04:56:10.703Z,31.80
2018-10-12T04:58:38.690Z,32.27
2018-10-12T05:01:05.932Z,30.67
2018-10-12T05:03:33.111Z,30.43
2018-10-12T05:06:00.674Z,30.20
2018-10-12T05:08:27.864Z,27.73
2018-10-12T05:10:55.039Z,23.27
2018-10-12T05:13:22.243Z,24.27
2018-10-12T05:15:49.420Z,24.50
2018-10-12T05:18:16.624Z,26.83
2018-10-12T05:20:43.780Z,28.03
2018-10-12T05:23:10.964Z,29.07
2018-10-12T05:25:38.119Z,26.73
2018-10-12T05:28:05.342Z,24.73
2018-10-12T05:33:06.582Z,26.67
2018-10-12T05:35:33.737Z,30.97
2018-10-12T05:38:01.213Z,32.20
2018-10-12T05:40:28.428Z,32.77
2018-10-12T05:42:55.731Z,30.53
2018-10-12T05:45:23.153Z,32.60
2018-10-12T05:47:50.341Z,31.03
2018-10-12T05:50:17.548Z,33.87
2018-10-12T05:52:44.741Z,30.83
2018-10-12T05:55:11.959Z,34.00
2018-10-12T05:57:40.840Z,34.47
2018-10-12T06:00:08.703Z,32.60
2018-10-12T06:02:36.028Z,30.17
2018-10-12T06:05:03.403Z,30.33
2018-10-12T06:07:30.732Z,29.70
2018-10-12T06:09:58.087Z,27.63
2018-10-12T06:12:25.170Z,28.03
2018-10-12T06:14:52.365Z,25.97
2018-10-12T06:17:19.567Z,26.33
2018-10-12T06:19:46.850Z,28.37
2018-10-12T06:22:14.125Z,29.10
2018-10-12T06:24:41.389Z,29.87
2018-10-12T06:27:08.627Z,29.90
2018-10-12T06:29:35.871Z,28.93
2018-10-12T06:32:03.056Z,32.50
2018-10-12T06:34:30.365Z,29.90
2018-10-12T06:36:57.545Z,30.37
2018-10-12T06:39:24.747Z,31.83
2018-10-12T06:41:51.988Z,32.40
2018-10-12T06:44:19.163Z,32.37
2018-10-12T06:46:46.463Z,33.10
2018-10-12T06:49:13.591Z,30.17
2018-10-12T06:51:40.813Z,26.07
2018-10-12T06:54:08.339Z,28.97
2018-10-12T06:56:35.523Z,30.60
2018-10-12T06:59:02.967Z,29.20
2018-10-12T07:01:30.331Z,31.67
2018-10-12T07:03:57.787Z,28.87
2018-10-12T07:06:25.165Z,31.23
2018-10-12T07:08:52.316Z,28.20
2018-10-12T07:11:19.521Z,29.17
2018-10-12T07:13:47.466Z,28.17
2018-10-12T07:16:14.767Z,27.43
2018-10-12T07:18:42.023Z,26.63
2018-10-12T07:21:09.203Z,27.67
2018-10-12T07:23:36.364Z,29.37
2018-10-12T07:26:03.695Z,25.90
2018-10-12T07:28:30.820Z,25.97
2018-10-12T07:30:58.034Z,26.77
2018-10-12T07:33:25.201Z,24.90
2018-10-12T07:35:52.407Z,25.30
2018-10-12T07:38:19.587Z,27.07
2018-10-12T07:40:46.751Z,24.17
2018-10-12T07:43:13.922Z,23.07
2018-10-12T07:45:41.147Z,27.20
2018-10-12T07:48:08.364Z,22.77
2018-10-12T07:50:35.507Z,24.23
2018-10-12T07:53:02.699Z,21.10
2018-10-12T07:55:29.855Z,22.73
2018-10-12T07:57:57.019Z,26.07
2018-10-12T08:00:24.196Z,24.63
2018-10-12T08:02:51.347Z,21.37
2018-10-12T08:05:18.517Z,22.23
2018-10-12T08:07:45.725Z,22.00
2018-10-12T08:10:12.899Z,24.83
2018-10-12T08:12:40.113Z,23.20
2018-10-12T08:15:07.332Z,23.70
2018-10-12T08:17:34.536Z,22.57
2018-10-12T08:20:02.615Z,22.83
2018-10-12T08:22:36.414Z,22.53
2018-10-12T08:25:03.613Z,21.70
2018-10-12T08:27:30.849Z,20.23
2018-10-12T08:29:58.279Z,21.30
2018-10-12T08:32:25.608Z,19.83
2018-10-12T08:34:52.756Z,19.60
2018-10-12T08:37:19.927Z,19.93
2018-10-12T08:39:47.107Z,18.30
2018-10-12T08:42:14.295Z,19.70
2018-10-12T08:44:41.468Z,18.33
2018-10-12T08:47:08.697Z,19.23
2018-10-12T08:49:35.863Z,18.73
2018-10-12T08:52:03.043Z,18.00
2018-10-12T08:54:30.214Z,17.40
2018-10-12T08:56:57.363Z,18.30
2018-10-12T08:59:24.549Z,18.10
2018-10-12T09:01:51.732Z,17.57
2018-10-12T09:04:19.766Z,20.10
2018-10-12T09:06:46.928Z,18.47
2018-10-12T09:09:14.125Z,16.57
2018-10-12T09:11:41.299Z,18.20
2018-10-12T09:14:08.852Z,19.00
2018-10-12T09:16:36.011Z,16.23
2018-10-12T09:19:03.460Z,14.90
2018-10-12T09:21:30.896Z,15.30
2018-10-12T09:23:58.067Z,15.03
2018-10-12T09:26:25.244Z,15.67
2018-10-12T09:28:52.414Z,15.60
2018-10-12T09:31:19.587Z,13.90
2018-10-12T09:33:46.776Z,14.10
2018-10-12T09:36:13.973Z,14.53
2018-10-12T09:38:41.147Z,14.40
2018-10-12T09:41:08.331Z,14.47
2018-10-12T09:43:35.503Z,16.40
2018-10-12T09:46:09.537Z,15.20
2018-10-12T09:48:36.693Z,13.53
2018-10-12T09:51:03.863Z,12.37
2018-10-12T09:53:31.019Z,13.60
2018-10-12T09:55:58.203Z,14.20
2018-10-12T09:58:25.367Z,13.60
2018-10-12T10:00:58.351Z,14.67
2018-10-12T10:03:31.196Z,12.40
2018-10-12T10:05:59.746Z,12.40
2018-10-12T10:08:27.066Z,12.70
2018-10-12T10:10:54.075Z,14.03
2018-10-12T10:13:21.239Z,10.43
2018-10-12T10:15:48.436Z,9.83
2018-10-12T10:18:15.599Z,11.10
2018-10-12T10:20:42.781Z,10.87
2018-10-12T10:23:10.064Z,12.37
2018-10-12T10:25:37.263Z,11.97
2018-10-12T10:28:04.923Z,13.50
2018-10-12T10:30:32.083Z,10.50
2018-10-12T10:32:59.260Z,10.50
2018-10-12T10:35:26.458Z,11.53
2018-10-12T10:37:53.623Z,11.20
2018-10-12T10:40:20.815Z,10.73
2018-10-12T10:42:47.982Z,11.93
2018-10-12T10:45:15.204Z,7.43
2018-10-12T10:47:42.380Z,9.30
2018-10-12T10:50:09.566Z,15.13
2018-10-12T10:52:36.799Z,9.87
2018-10-12T10:55:04.035Z,8.83
2018-10-12T10:57:31.198Z,10.90
2018-10-12T10:59:58.383Z,8.43
2018-10-12T11:02:25.546Z,7.80
2018-10-12T11:04:52.711Z,8.37
2018-10-12T11:07:19.903Z,8.00
2018-10-12T11:09:47.067Z,7.77
2018-10-12T11:12:14.290Z,8.97
2018-10-12T11:14:41.415Z,12.73
2018-10-12T11:17:08.598Z,7.60
2018-10-12T11:19:35.858Z,7.80
2018-10-12T11:22:02.963Z,7.50
2018-10-12T11:24:30.241Z,7.40
2018-10-12T11:26:57.401Z,8.70
2018-10-12T11:29:24.499Z,7.50
2018-10-12T11:31:51.688Z,7.33
2018-10-12T11:34:18.845Z,8.77
2018-10-12T11:36:46.031Z,8.20
2018-10-12T11:39:14.559Z,9.43
2018-10-12T11:41:41.754Z,8.63
2018-10-12T11:44:08.956Z,7.97
2018-10-12T11:46:36.156Z,6.60
2018-10-12T11:49:03.377Z,6.97
2018-10-12T11:51:30.588Z,7.77
2018-10-12T11:53:57.771Z,8.67
2018-10-12T11:56:24.937Z,6.83
2018-10-12T11:58:52.125Z,5.67
2018-10-12T12:01:19.288Z,5.67
2018-10-12T12:03:46.489Z,8.33
2018-10-12T12:06:13.663Z,5.40
2018-10-12T12:08:40.832Z,7.17
2018-10-12T12:11:08.019Z,9.57
2018-10-12T12:13:35.218Z,7.57
2018-10-12T12:16:02.372Z,6.93
2018-10-12T12:18:29.575Z,5.43
2018-10-12T12:20:56.751Z,6.00
2018-10-12T12:23:23.929Z,5.73
2018-10-12T12:25:57.830Z,7.00
2018-10-12T12:28:25.017Z,5.07
2018-10-12T12:30:52.210Z,5.23
2018-10-12T12:33:19.380Z,3.93
2018-10-12T12:35:46.832Z,6.00
2018-10-12T12:38:13.719Z,5.33
2018-10-12T12:40:40.871Z,4.80
2018-10-12T12:43:08.061Z,6.23
2018-10-12T12:45:35.223Z,6.87
2018-10-12T12:48:02.596Z,6.13
2018-10-12T12:50:29.592Z,5.10
2018-10-12T12:52:56.751Z,6.50
2018-10-12T12:55:23.996Z,7.03
2018-10-12T12:57:51.122Z,4.57
2018-10-12T13:00:18.309Z,5.20
2018-10-12T13:02:45.456Z,4.70
2018-10-12T13:05:12.632Z,5.63
2018-10-12T13:10:13.891Z,6.37
2018-10-12T13:12:41.046Z,5.27
2018-10-12T13:15:08.251Z,4.23
2018-10-12T13:17:35.425Z,6.60
2018-10-12T13:20:02.615Z,5.93
2018-10-12T13:22:29.789Z,5.70
2018-10-12T13:24:56.975Z,4.80
2018-10-12T13:27:24.142Z,5.00
2018-10-12T13:29:51.323Z,6.03
2018-10-12T13:32:18.595Z,3.83
2018-10-12T13:34:45.803Z,4.07
2018-10-12T13:37:12.984Z,5.17
2018-10-12T13:39:40.159Z,3.60
2018-10-12T13:42:14.233Z,3.80
2018-10-12T13:44:41.400Z,6.20
2018-10-12T13:47:08.552Z,5.80
2018-10-12T13:49:35.748Z,4.03
2018-10-12T13:52:02.930Z,5.17
2018-10-12T13:54:30.135Z,6.40
2018-10-12T13:56:58.142Z,4.67
2018-10-12T13:59:26.275Z,5.50
2018-10-12T14:01:53.469Z,4.53
2018-10-12T14:04:20.632Z,5.57
2018-10-12T14:06:47.827Z,5.37
2018-10-12T14:09:14.985Z,5.17
2018-10-12T14:11:42.167Z,3.57
2018-10-12T14:14:09.323Z,4.70
2018-10-12T14:16:36.499Z,3.93
2018-10-12T14:19:03.843Z,5.20
2018-10-12T14:21:31.064Z,4.27
2018-10-12T14:24:05.267Z,5.67
2018-10-12T14:26:32.617Z,3.50
2018-10-12T14:28:59.961Z,5.00
2018-10-12T14:31:27.173Z,6.50
2018-10-12T14:33:54.422Z,4.40
2018-10-12T14:36:21.667Z,4.87
2018-10-12T14:38:48.919Z,3.60
2018-10-12T14:41:16.210Z,5.87
2018-10-12T14:43:43.456Z,14.80
2018-10-12T14:46:10.619Z,7.33
2018-10-12T14:48:37.791Z,5.80
2018-10-12T14:51:05.469Z,4.50
2018-10-12T14:53:32.919Z,5.93
2018-10-12T14:56:00.128Z,3.80
2018-10-12T14:58:27.351Z,3.30
2018-10-12T15:00:54.623Z,4.67
2018-10-12T15:03:21.823Z,5.10
2018-10-12T15:05:49.004Z,3.00
2018-10-12T15:08:16.161Z,5.07
2018-10-12T15:10:43.389Z,4.07
2018-10-12T15:13:10.550Z,2.90
2018-10-12T15:15:37.746Z,2.93
2018-10-12T15:18:05.133Z,4.57
2018-10-12T15:20:32.491Z,2.73
2018-10-12T15:22:59.660Z,3.70
2018-10-12T15:25:26.846Z,3.27
2018-10-12T15:27:54.019Z,3.77
2018-10-12T15:30:21.218Z,5.37
2018-10-12T15:32:48.405Z,5.47
2018-10-12T15:35:15.595Z,4.67
2018-10-12T15:37:43.711Z,6.10
2018-10-12T15:40:10.820Z,3.53
2018-10-12T15:42:38.235Z,3.13
2018-10-12T15:45:05.533Z,3.23
2018-10-12T15:47:32.834Z,3.57
2018-10-12T15:50:00.014Z,5.70
2018-10-12T15:52:27.207Z,3.50
2018-10-12T15:54:54.403Z,4.30
2018-10-12T15:57:26.479Z,3.43
2018-10-12T15:59:53.668Z,3.50
2018-10-12T16:02:27.747Z,2.83
2018-10-12T16:04:54.917Z,4.20
2018-10-12T16:07:22.099Z,45.37
2018-10-12T16:09:50.651Z,63.93
2018-10-12T16:12:18.736Z,38.43
2018-10-12T16:14:45.956Z,15.80
2018-10-12T16:17:13.127Z,13.23
2018-10-12T16:19:40.391Z,8.30
2018-10-12T16:22:08.083Z,11.90
2018-10-12T16:24:35.255Z,23.10
2018-10-12T16:27:02.448Z,15.47
2018-10-12T16:29:29.611Z,17.07
2018-10-12T16:31:56.779Z,12.80
2018-10-12T16:34:24.020Z,12.20
2018-10-12T16:36:51.179Z,8.67
2018-10-12T16:39:18.376Z,7.90
2018-10-12T16:41:45.567Z,9.17
2018-10-12T16:47:11.823Z,8.00
2018-10-12T16:49:38.991Z,8.47
2018-10-12T16:52:06.261Z,14.30
2018-10-12T16:54:33.427Z,18.03
2018-10-12T16:57:00.609Z,16.47
2018-10-12T16:59:27.827Z,15.17
2018-10-12T17:01:55.004Z,10.27
2018-10-12T17:04:22.160Z,10.87
2018-10-12T17:06:49.516Z,11.27
2018-10-12T17:09:16.668Z,8.73
2018-10-12T17:11:43.830Z,7.20
2018-10-12T17:14:11.011Z,8.63
2018-10-12T17:16:38.176Z,8.30
2018-10-12T17:21:39.572Z,5.17
2018-10-12T17:24:06.766Z,5.53
2018-10-12T17:26:33.936Z,5.13
2018-10-12T17:29:01.105Z,8.00
2018-10-12T17:31:28.283Z,6.90
2018-10-12T17:33:55.451Z,6.50
2018-10-12T17:36:22.635Z,8.07
2018-10-12T17:38:49.811Z,7.03
2018-10-12T17:41:19.147Z,7.33
2018-10-12T17:43:46.513Z,7.10
2018-10-12T17:46:13.976Z,7.97
2018-10-12T17:48:41.219Z,4.87
2018-10-12T17:51:08.567Z,6.90
2018-10-12T17:53:36.051Z,6.80
2018-10-12T17:56:03.255Z,6.70
2018-10-12T17:58:30.759Z,6.53
2018-10-12T18:00:57.964Z,8.93
2018-10-12T18:03:25.140Z,6.23
2018-10-12T18:05:52.311Z,7.70
2018-10-12T18:08:19.497Z,6.73
2018-10-12T18:10:46.670Z,7.20
2018-10-12T18:13:13.835Z,7.07
2018-10-12T18:15:40.994Z,8.23
2018-10-12T18:18:08.173Z,7.80
2018-10-12T18:20:35.348Z,7.87
2018-10-12T18:23:02.592Z,8.57
2018-10-12T18:25:29.773Z,7.93
2018-10-12T18:27:56.927Z,8.63
2018-10-12T18:30:24.093Z,6.30
2018-10-12T18:32:51.277Z,8.47
2018-10-12T18:35:18.459Z,6.10
2018-10-12T18:37:45.635Z,6.80
2018-10-12T18:40:12.798Z,5.20
2018-10-12T18:42:40.024Z,7.30
2018-10-12T18:45:07.182Z,4.97
2018-10-12T18:47:34.390Z,6.93
2018-10-12T18:50:01.568Z,6.07
2018-10-12T18:52:28.746Z,6.43
2018-10-12T18:54:55.914Z,5.70
2018-10-12T18:57:23.067Z,5.37
2018-10-12T18:59:50.287Z,6.00
2018-10-12T19:02:17.392Z,7.80
2018-10-12T19:04:44.601Z,6.43
2018-10-12T19:07:11.727Z,7.37
2018-10-12T19:09:38.895Z,6.33
2018-10-12T19:12:06.068Z,5.50
2018-10-12T19:14:33.228Z,4.90
2018-10-12T19:17:00.387Z,6.87
2018-10-12T19:19:27.576Z,4.83
2018-10-12T19:21:54.755Z,5.87
2018-10-12T19:24:21.935Z,7.73
2018-10-12T19:26:49.124Z,6.80
2018-10-12T19:29:16.296Z,6.10
2018-10-12T19:31:43.516Z,8.43
2018-10-12T19:34:10.646Z,7.43
2018-10-12T19:36:37.975Z,6.17
2018-10-12T19:39:06.336Z,6.17
2018-10-12T19:41:33.507Z,4.87
2018-10-12T19:44:00.671Z,4.70
2018-10-12T19:46:27.835Z,6.30
2018-10-12T19:48:55.003Z,6.00
2018-10-12T19:51:22.154Z,7.07
2018-10-12T19:53:49.325Z,4.73
2018-10-12T19:56:16.507Z,8.87
2018-10-12T19:58:43.675Z,8.33
2018-10-12T20:01:10.822Z,8.60
2018-10-12T20:03:37.999Z,7.27
2018-10-12T20:06:05.327Z,5.77
2018-10-12T20:08:32.516Z,7.20
2018-10-12T20:10:59.682Z,6.10
2018-10-12T20:13:26.852Z,6.27
2018-10-12T20:15:54.032Z,6.93
2018-10-12T20:18:21.195Z,5.73
2018-10-12T20:20:48.372Z,10.13
2018-10-12T20:23:15.528Z,8.73
2018-10-12T20:25:42.681Z,7.13
2018-10-12T20:28:09.850Z,8.13
2018-10-12T20:30:37.006Z,6.00
2018-10-12T20:33:04.167Z,5.93
2018-10-12T20:35:31.366Z,7.13
2018-10-12T20:37:58.619Z,7.60
2018-10-12T20:40:25.793Z,6.13
2018-10-12T20:42:52.963Z,7.90
2018-10-12T20:45:20.147Z,5.20
2018-10-12T20:47:47.308Z,5.60
2018-10-12T20:50:14.512Z,6.70
2018-10-12T20:52:41.672Z,8.10
2018-10-12T20:55:08.855Z,6.47
2018-10-12T20:57:40.628Z,6.67
2018-10-12T21:00:07.827Z,7.13
2018-10-12T21:02:34.999Z,5.63
2018-10-12T21:05:02.174Z,6.73
2018-10-12T21:07:29.330Z,6.73
2018-10-12T21:09:56.506Z,6.53
2018-10-12T21:12:23.664Z,6.00
2018-10-12T21:14:50.826Z,9.30
2018-10-12T21:17:18.070Z,9.23
2018-10-12T21:19:45.255Z,6.77
2018-10-12T21:22:12.431Z,6.97
2018-10-12T21:24:39.605Z,6.40
2018-10-12T21:27:07.022Z,6.57
2018-10-12T21:29:34.187Z,6.83
2018-10-12T21:32:01.339Z,6.83
2018-10-12T21:34:28.508Z,6.20
2018-10-12T21:36:55.655Z,10.13
2018-10-12T21:39:22.815Z,6.80
2018-10-12T21:41:49.976Z,5.37
2018-10-12T21:44:17.159Z,6.00
2018-10-12T21:46:44.393Z,5.73
2018-10-12T21:49:11.990Z,6.90
2018-10-12T21:51:39.155Z,5.77
2018-10-12T21:54:06.322Z,8.77
2018-10-12T21:56:33.605Z,6.30
2018-10-12T21:59:01.947Z,5.07
2018-10-12T22:01:29.118Z,5.57
2018-10-12T22:03:56.280Z,5.87
2018-10-12T22:06:23.439Z,7.00
2018-10-12T22:08:51.856Z,6.17
2018-10-12T22:11:19.050Z,5.33
2018-10-12T22:13:46.280Z,4.97
2018-10-12T22:16:13.440Z,6.20
2018-10-12T22:18:40.611Z,5.27
2018-10-12T22:21:07.792Z,7.57
2018-10-12T22:23:34.984Z,6.00
2018-10-12T22:26:03.305Z,4.67
2018-10-12T22:28:30.426Z,5.93
2018-10-12T22:30:57.600Z,4.53
2018-10-12T22:33:24.761Z,6.10
2018-10-12T22:35:51.944Z,6.33
2018-10-12T22:38:19.115Z,6.43
2018-10-12T22:40:46.295Z,7.87
2018-10-12T22:43:13.458Z,7.10
2018-10-12T22:45:40.656Z,7.00
2018-10-12T22:48:07.811Z,6.17
2018-10-12T22:50:35.001Z,7.10
2018-10-12T22:53:02.155Z,6.20
2018-10-12T22:55:29.319Z,5.30
2018-10-12T22:57:59.573Z,6.47
2018-10-12T23:00:26.773Z,8.47
2018-10-12T23:02:53.931Z,8.50
2018-10-12T23:05:21.128Z,7.57
2018-10-12T23:07:48.295Z,7.73
2018-10-12T23:10:15.456Z,6.60
2018-10-12T23:12:42.722Z,7.33
2018-10-12T23:15:09.857Z,6.30
2018-10-12T23:17:37.028Z,7.47
2018-10-12T23:20:04.591Z,7.00
2018-10-12T23:22:38.560Z,6.13
2018-10-12T23:25:05.747Z,6.70
2018-10-12T23:27:33.164Z,6.87
2018-10-12T23:30:00.323Z,5.67
2018-10-12T23:32:27.489Z,6.10
2018-10-12T23:34:54.657Z,7.30
2018-10-12T23:37:21.832Z,6.50
2018-10-12T23:39:48.975Z,8.10
2018-10-12T23:42:16.155Z,8.17
2018-10-12T23:44:43.315Z,5.97
2018-10-12T23:47:10.638Z,6.57
2018-10-12T23:49:37.811Z,6.43
2018-10-12T23:52:05.179Z,5.70
2018-10-12T23:54:32.336Z,5.97
2018-10-12T23:56:59.516Z,6.20
2018-10-12T23:59:26.668Z,6.17
